Time;durP1;ratioP1;P1;durP2;ratioP2;P2;SDS_P1;SDS_P2;PMS_P1;PMS_P2;Temp;Humidity;BMP_temperature;BMP_pressure;BME280_temperature;BME280_humidity;BME280_pressure;Samples;Min_cycle;Max_cycle;Signal;HPM_P1;HPM_P2
2022/01/09 00:01:56;;;;;;;0.20;0.20;;;;;;;-0.11;100.00;98765.72;5053021;28;20063;-86
2022/01/09 00:04:29;;;;;;;0.20;0.20;;;;;;;-0.11;100.00;98773.72;5056315;28;20523;-87
2022/01/09 00:07:04;;;;;;;0.20;0.20;;;;;;;-0.15;100.00;98769.13;5046028;28;20068;-85
2022/01/09 00:09:32;;;;;;;0.20;0.20;;;;;;;-0.16;100.00;98775.56;5064828;28;20041;-87
2022/01/09 00:12:06;;;;;;;0.20;0.20;;;;;;;-0.09;100.00;98768.13;5049100;28;20064;-86
2022/01/09 00:14:35;;;;;;;0.20;0.20;;;;;;;-0.15;100.00;98759.25;5039649;28;20046;-85
2022/01/09 00:17:08;;;;;;;0.15;0.15;;;;;;;-0.17;100.00;98766.72;5056299;28;20045;-87
2022/01/09 00:19:36;;;;;;;0.20;0.20;;;;;;;-0.21;100.00;98757.59;5045550;28;20060;-86
2022/01/09 00:22:11;;;;;;;0.20;0.20;;;;;;;-0.12;100.00;98755.28;5054484;28;20052;-85
2022/01/09 00:24:39;;;;;;;0.20;0.20;;;;;;;-0.22;100.00;98747.97;5045123;28;20042;-85
2022/01/09 00:27:12;;;;;;;0.20;0.20;;;;;;;-0.21;100.00;98742.38;5044933;28;20053;-86
2022/01/09 00:29:45;;;;;;;0.20;0.20;;;;;;;-0.18;100.00;98736.53;5046221;28;20056;-85
2022/01/09 00:32:19;;;;;;;0.20;0.20;;;;;;;-0.04;100.00;98736.09;5041145;28;20060;-86
2022/01/09 00:34:52;;;;;;;0.20;0.20;;;;;;;-0.10;100.00;98724.53;5043396;28;20052;-86
2022/01/09 00:37:26;;;;;;;0.20;0.20;;;;;;;-0.13;100.00;98721.56;5049626;28;20049;-87
2022/01/09 00:39:59;;;;;;;0.20;0.20;;;;;;;-0.16;100.00;98714.06;5048885;28;20417;-86
2022/01/09 00:42:33;;;;;;;0.10;0.10;;;;;;;-0.16;100.00;98708.72;5043823;28;20489;-86
2022/01/09 00:45:01;;;;;;;0.20;0.20;;;;;;;-0.16;100.00;98714.88;5048386;28;20419;-86
2022/01/09 00:47:34;;;;;;;0.20;0.20;;;;;;;-0.18;100.00;98704.44;5051339;28;20045;-86
2022/01/09 00:50:04;;;;;;;0.20;0.20;;;;;;;-0.18;100.00;98699.09;5053067;28;20056;-85
2022/01/09 00:52:38;;;;;;;0.20;0.20;;;;;;;-0.18;100.00;98699.09;5039253;28;20371;-85
2022/01/09 00:55:08;;;;;;;0.20;0.20;;;;;;;-0.21;100.00;98690.75;5058898;28;20064;-86
2022/01/09 00:57:36;;;;;;;0.20;0.20;;;;;;;-0.19;100.00;98688.66;5051425;28;20041;-86
2022/01/09 01:00:07;;;;;;;0.20;0.20;;;;;;;-0.22;100.00;98679.28;5045997;28;20091;-85
2022/01/09 01:02:41;;;;;;;0.10;0.10;;;;;;;-0.19;100.00;98683.31;5040811;28;20046;-86
2022/01/09 01:05:14;;;;;;;0.10;0.10;;;;;;;-0.15;100.00;98683.59;5038179;28;20050;-86
2022/01/09 01:07:48;;;;;;;0.20;0.20;;;;;;;-0.20;100.00;98679.81;5045850;28;20052;-85
2022/01/09 01:10:22;;;;;;;0.20;0.20;;;;;;;-0.11;100.00;98684.69;5047773;28;20053;-86
2022/01/09 01:12:50;;;;;;;0.20;0.20;;;;;;;-0.10;100.00;98673.72;5042894;28;20684;-86
2022/01/09 01:15:23;;;;;;;0.20;0.20;;;;;;;-0.09;100.00;98671.88;5046525;28;20049;-87
2022/01/09 01:17:56;;;;;;;0.10;0.10;;;;;;;-0.18;100.00;98672.34;5048929;28;20120;-85
2022/01/09 01:20:25;;;;;;;0.20;0.20;;;;;;;-0.13;100.00;98684.94;5044482;28;20490;-85
2022/01/09 01:22:57;;;;;;;0.20;0.20;;;;;;;-0.12;100.00;98675.06;5047832;28;20052;-86
2022/01/09 01:25:31;;;;;;;0.20;0.20;;;;;;;-0.15;100.00;98681.72;5054524;28;20143;-85
2022/01/09 01:28:04;;;;;;;0.10;0.10;;;;;;;-0.11;100.00;98671.31;5050564;28;20044;-85
2022/01/09 01:30:38;;;;;;;0.20;0.20;;;;;;;-0.10;100.00;98670.25;5041118;28;20136;-86
2022/01/09 01:33:06;;;;;;;0.20;0.20;;;;;;;-0.11;100.00;98658.75;5047011;28;20048;-85
2022/01/09 01:35:39;;;;;;;0.20;0.20;;;;;;;-0.07;100.00;98665.19;5042848;28;20041;-85
2022/01/09 01:38:09;;;;;;;0.20;0.20;;;;;;;-0.09;100.00;98663.84;5035462;28;20054;-86
2022/01/09 01:40:37;;;;;;;0.10;0.10;;;;;;;-0.22;100.00;98654.41;5045991;28;20049;-85
2022/01/09 01:43:05;;;;;;;0.20;0.20;;;;;;;-0.11;100.00;98658.75;5045560;28;20049;-85
2022/01/09 01:45:39;;;;;;;0.20;0.20;;;;;;;-0.04;100.00;98658.53;5044343;28;20493;-86
2022/01/09 01:48:12;;;;;;;0.20;0.20;;;;;;;-0.09;100.00;98659.28;5047894;28;20481;-85
2022/01/09 01:50:46;;;;;;;0.20;0.20;;;;;;;-0.08;100.00;98649.41;5049941;28;20064;-86
2022/01/09 01:53:22;;;;;;;0.10;0.10;;;;;;;-0.11;100.00;98641.91;5042478;28;20057;-86
2022/01/09 01:55:56;;;;;;;0.10;0.10;;;;;;;-0.05;100.00;98647.00;5044976;28;20056;-85
2022/01/09 01:58:31;;;;;;;0.20;0.20;;;;;;;0.04;100.00;98644.63;5048884;28;20501;-86
2022/01/09 02:01:04;;;;;;;0.20;0.20;;;;;;;0.02;100.00;98622.72;5037372;28;20050;-85
2022/01/09 02:03:38;;;;;;;0.10;0.10;;;;;;;0.06;100.00;98629.16;5046689;28;20056;-86
2022/01/09 02:06:12;;;;;;;0.20;0.20;;;;;;;0.02;100.00;98630.72;5042494;28;20052;-86
2022/01/09 02:08:42;;;;;;;0.20;0.20;;;;;;;0.01;100.00;98623.78;5055991;28;20041;-87
2022/01/09 02:11:15;;;;;;;0.20;0.20;;;;;;;-0.01;100.00;98624.03;5046653;28;20056;-85
2022/01/09 02:13:48;;;;;;;0.20;0.20;;;;;;;-0.01;100.00;98626.72;5046239;28;20127;-87
2022/01/09 02:16:22;;;;;;;0.20;0.20;;;;;;;0.03;100.00;98620.84;5052305;28;20052;-86
2022/01/09 02:18:51;;;;;;;0.10;0.10;;;;;;;-0.01;100.00;98618.69;5046956;28;20045;-87
2022/01/09 02:21:26;;;;;;;0.20;0.20;;;;;;;-0.09;100.00;98597.00;5047077;28;20072;-86
2022/01/09 02:23:54;;;;;;;0.13;0.13;;;;;;;-0.07;100.00;98602.88;5044856;28;20057;-87
2022/01/09 02:26:24;;;;;;;0.20;0.20;;;;;;;-0.03;100.00;98615.47;5048845;28;20528;-85
2022/01/09 02:28:52;;;;;;;0.22;0.22;;;;;;;0.05;100.00;98616.03;5048566;28;20516;-85
2022/01/09 02:31:25;;;;;;;0.10;0.10;;;;;;;0.07;100.00;98620.06;5047230;28;20053;-86
2022/01/09 02:33:59;;;;;;;0.10;0.10;;;;;;;0.08;100.00;98615.50;5043041;28;20052;-85
2022/01/09 02:36:34;;;;;;;0.10;0.10;;;;;;;0.05;100.00;98605.34;5043007;28;20709;-85
2022/01/09 02:39:03;;;;;;;0.20;0.20;;;;;;;0.08;100.00;98605.59;5046445;28;20049;-86
2022/01/09 02:41:36;;;;;;;0.13;0.13;;;;;;;0.09;100.00;98604.56;5056358;28;20041;-86
2022/01/09 02:44:09;;;;;;;0.20;0.20;;;;;;;0.17;100.00;98604.03;5051199;28;20406;-85
2022/01/09 02:46:55;;;;;;;0.20;0.20;;;;;;;0.15;100.00;98597.34;5048271;28;20033;-85
2022/01/09 02:49:29;;;;;;;0.15;0.15;;;;;;;0.09;100.00;98601.88;5036284;28;20053;-86
2022/01/09 02:52:10;;;;;;;0.15;0.15;;;;;;;0.13;100.00;98594.16;5046567;28;20056;-86
2022/01/09 02:57:34;;;;;;;0.20;0.20;;;;;;;0.10;100.00;98589.31;5043825;28;20053;-86
2022/01/09 03:00:05;;;;;;;0.20;0.20;;;;;;;0.09;100.00;98593.84;5046622;28;20049;-84
2022/01/09 03:02:39;;;;;;;0.20;0.20;;;;;;;0.11;100.00;98588.22;5037783;28;20040;-86
2022/01/09 03:05:13;;;;;;;0.17;0.17;;;;;;;0.10;100.00;98586.66;5044831;28;20386;-85
2022/01/09 03:07:48;;;;;;;0.20;0.20;;;;;;;0.12;100.00;98587.19;5044179;28;20059;-85
2022/01/09 03:10:23;;;;;;;0.20;0.20;;;;;;;0.08;100.00;98599.47;5045280;28;20045;-85
2022/01/09 03:12:55;;;;;;;0.20;0.20;;;;;;;0.05;100.00;98591.97;5046377;28;20049;-86
2022/01/09 03:15:28;;;;;;;0.20;0.20;;;;;;;0.06;100.00;98596.25;5050102;28;20075;-82
2022/01/09 03:17:56;;;;;;;0.20;0.20;;;;;;;0.06;100.00;98588.25;5051970;28;20463;-85
2022/01/09 03:20:30;;;;;;;0.13;0.13;;;;;;;0.04;100.00;98593.03;5039954;28;20045;-85
2022/01/09 03:23:05;;;;;;;0.20;0.20;;;;;;;0.03;100.00;98584.22;5044069;28;20056;-86
2022/01/09 03:25:34;;;;;;;0.20;0.20;;;;;;;0.10;100.00;98583.97;5045800;28;20054;-86
2022/01/09 03:28:03;;;;;;;0.10;0.10;;;;;;;0.01;100.00;98575.63;5050462;28;20056;-87
2022/01/09 03:30:36;;;;;;;0.20;0.20;;;;;;;0.10;100.00;98567.94;5041508;28;20041;-86
2022/01/09 03:33:10;;;;;;;0.20;0.20;;;;;;;0.14;100.00;98571.69;5055700;28;20067;-86
2022/01/09 03:35:38;;;;;;;0.20;0.20;;;;;;;0.07;100.00;98565.75;5053956;28;20428;-85
2022/01/09 03:38:13;;;;;;;0.20;0.20;;;;;;;0.02;100.00;98563.88;5049098;28;20041;-86
2022/01/09 03:40:46;;;;;;;0.20;0.20;;;;;;;0.05;100.00;98563.34;5043783;28;20044;-84
2022/01/09 03:43:19;;;;;;;0.20;0.20;;;;;;;0.12;100.00;98560.44;5049842;28;20053;-87
2022/01/09 03:45:52;;;;;;;0.20;0.20;;;;;;;0.08;100.00;98557.47;5046329;28;20413;-84
2022/01/09 03:48:25;;;;;;;0.20;0.20;;;;;;;0.05;100.00;98565.22;5042967;28;20076;-86
2022/01/09 03:50:58;;;;;;;0.20;0.20;;;;;;;0.02;100.00;98547.03;5049744;28;20049;-84
2022/01/09 03:53:33;;;;;;;0.20;0.20;;;;;;;0.02;100.00;98557.75;5058875;28;20041;-84
2022/01/09 03:56:06;;;;;;;0.20;0.20;;;;;;;0.03;100.00;98559.31;5041368;28;20496;-85
2022/01/09 03:58:36;;;;;;;0.17;0.17;;;;;;;0.02;100.00;98566.56;5045505;28;20048;-85
2022/01/09 04:01:06;;;;;;;0.20;0.20;;;;;;;0.04;100.00;98553.72;5036730;28;20045;-86
2022/01/09 04:03:35;;;;;;;0.20;0.20;;;;;;;0.02;100.00;98558.53;5041352;28;20049;-86
2022/01/09 04:06:08;;;;;;;0.20;0.20;;;;;;;0.04;100.00;98555.59;5043792;28;20045;-85
2022/01/09 04:08:38;;;;;;;0.10;0.10;;;;;;;0.05;100.00;98571.38;5062318;28;20052;-85
2022/01/09 04:11:07;;;;;;;0.20;0.20;;;;;;;0.07;100.00;98563.91;5043608;28;20049;-83
2022/01/09 04:13:40;;;;;;;0.20;0.20;;;;;;;0.04;100.00;98566.28;5038257;28;20052;-86
2022/01/09 04:16:13;;;;;;;0.20;0.20;;;;;;;0.09;100.00;98564.44;5037184;28;20049;-85
2022/01/09 04:18:48;;;;;;;0.20;0.20;;;;;;;0.13;100.00;98570.88;5039441;28;20063;-85
2022/01/09 04:21:22;;;;;;;0.10;0.10;;;;;;;0.15;100.00;98567.91;5042382;28;20040;-86
2022/01/09 04:23:56;;;;;;;0.10;0.10;;;;;;;0.09;100.00;98556.41;5039536;28;20482;-85
2022/01/09 04:26:24;;;;;;;0.20;0.20;;;;;;;0.13;100.00;98560.16;5043067;28;20042;-86
2022/01/09 04:28:57;;;;;;;0.13;0.13;;;;;;;0.14;100.00;98566.34;5044391;28;20041;-85
2022/01/09 04:31:31;;;;;;;0.10;0.10;;;;;;;0.21;100.00;98576.75;5040646;28;20433;-84
2022/01/09 04:34:04;;;;;;;0.25;0.25;;;;;;;0.14;100.00;98569.81;5035381;28;20734;-86
2022/01/09 04:36:37;;;;;;;0.10;0.10;;;;;;;0.16;100.00;98564.97;5042205;28;20049;-86
2022/01/09 04:39:11;;;;;;;0.10;0.10;;;;;;;0.11;100.00;98561.50;5049386;28;20049;-86
2022/01/09 04:41:45;;;;;;;0.10;0.10;;;;;;;0.10;100.00;98566.03;5046463;28;20055;-87
2022/01/09 04:44:18;;;;;;;0.20;0.20;;;;;;;0.13;100.00;98572.75;5052157;28;20100;-84
2022/01/09 04:46:57;;;;;;;0.13;0.13;;;;;;;0.10;100.00;98566.03;5044707;28;20048;-85
2022/01/09 04:49:36;;;;;;;0.20;0.20;;;;;;;0.09;100.00;98560.97;5049708;28;20044;-86
2022/01/09 04:52:13;;;;;;;0.20;0.20;;;;;;;0.15;100.00;98566.06;5047435;28;20044;-85
2022/01/09 04:54:42;;;;;;;0.22;0.22;;;;;;;0.14;100.00;98563.66;5044935;28;20398;-85
2022/01/09 04:57:10;;;;;;;0.13;0.13;;;;;;;0.12;100.00;98558.56;5050433;28;20509;-85
2022/01/09 04:59:44;;;;;;;0.20;0.20;;;;;;;0.14;100.00;98552.97;5049932;28;20040;-85
2022/01/09 05:02:17;;;;;;;0.20;0.20;;;;;;;0.16;100.00;98558.84;5042250;28;20490;-85
2022/01/09 05:04:45;;;;;;;0.20;0.20;;;;;;;0.14;100.00;98556.44;5035870;28;20494;-85
2022/01/09 05:07:18;;;;;;;0.20;0.20;;;;;;;0.19;100.00;98557.50;5046846;28;20478;-86
2022/01/09 05:09:53;;;;;;;0.20;0.20;;;;;;;0.20;100.00;98561.81;5047823;28;20048;-85
2022/01/09 05:12:26;;;;;;;0.20;0.20;;;;;;;0.22;100.00;98573.84;5039623;28;20394;-87
2022/01/09 05:14:59;;;;;;;0.20;0.20;;;;;;;0.18;100.00;98572.78;5042205;28;20053;-86
2022/01/09 05:17:32;;;;;;;0.17;0.17;;;;;;;0.19;100.00;98571.69;5039052;28;20045;-87
2022/01/09 05:20:01;;;;;;;0.10;0.10;;;;;;;0.17;100.00;98576.50;5044372;28;20033;-87
2022/01/09 05:22:34;;;;;;;0.10;0.10;;;;;;;0.18;100.00;98572.78;5042440;28;20049;-86
2022/01/09 05:25:09;;;;;;;0.10;0.10;;;;;;;0.16;100.00;98577.56;5055438;28;20040;-86
2022/01/09 05:27:43;;;;;;;0.20;0.20;;;;;;;0.07;100.00;98579.13;5044610;28;20048;-85
2022/01/09 05:30:16;;;;;;;0.20;0.20;;;;;;;0.13;100.00;98575.41;5042173;28;20048;-85
2022/01/09 05:32:44;;;;;;;0.20;0.20;;;;;;;-0.01;100.00;98561.75;5048878;28;20045;-85
2022/01/09 05:35:18;;;;;;;0.20;0.20;;;;;;;0.02;100.00;98577.25;5048655;28;20048;-87
2022/01/09 05:37:51;;;;;;;0.20;0.20;;;;;;;0.03;100.00;98580.72;5045534;28;20054;-86
2022/01/09 05:40:25;;;;;;;0.20;0.20;;;;;;;-0.05;100.00;98579.38;5066756;28;20058;-85
2022/01/09 05:42:58;;;;;;;0.20;0.20;;;;;;;-0.10;100.00;98574.78;5048124;28;20060;-85
2022/01/09 05:45:32;;;;;;;0.10;0.10;;;;;;;-0.08;100.00;98582.56;5051272;28;20049;-84
2022/01/09 05:48:02;;;;;;;0.20;0.20;;;;;;;-0.11;100.00;98575.06;5051512;28;20045;-85
2022/01/09 05:50:35;;;;;;;0.15;0.15;;;;;;;-0.13;100.00;98583.34;5049535;28;20401;-84
2022/01/09 05:53:08;;;;;;;0.13;0.13;;;;;;;-0.16;100.00;98583.88;5051351;28;20064;-85
2022/01/09 05:55:43;;;;;;;0.20;0.20;;;;;;;-0.23;100.00;98578.75;5054207;28;20393;-85
2022/01/09 05:58:16;;;;;;;0.20;0.20;;;;;;;-0.28;100.00;98589.41;5053827;28;20041;-86
2022/01/09 06:00:44;;;;;;;0.20;0.20;;;;;;;-0.25;100.00;98588.09;5053663;28;20061;-85
2022/01/09 06:03:18;;;;;;;0.17;0.17;;;;;;;-0.35;100.00;98584.31;5048833;28;20048;-85
2022/01/09 06:05:51;;;;;;;0.20;0.20;;;;;;;-0.36;100.00;98588.06;5047657;28;20049;-85
2022/01/09 06:08:24;;;;;;;0.10;0.10;;;;;;;-0.40;100.00;98588.81;5049604;28;20079;-86
2022/01/09 06:10:59;;;;;;;0.20;0.20;;;;;;;-0.41;100.00;98587.22;5048585;28;20397;-86
2022/01/09 06:13:32;;;;;;;0.20;0.20;;;;;;;-0.47;100.00;98588.25;5056073;28;20048;-86
2022/01/09 06:16:05;;;;;;;0.10;0.10;;;;;;;-0.46;100.00;98593.31;5047718;28;20070;-84
2022/01/09 06:18:39;;;;;;;0.10;0.10;;;;;;;-0.49;100.00;98599.19;5044230;28;20112;-86
2022/01/09 06:21:13;;;;;;;0.17;0.17;;;;;;;-0.50;100.00;98600.25;5047832;28;20060;-86
2022/01/09 06:23:41;;;;;;;0.10;0.10;;;;;;;-0.50;100.00;98597.56;5052192;28;20041;-85
2022/01/09 06:26:11;;;;;;;0.10;0.10;;;;;;;-0.51;100.00;98601.34;5041696;28;20064;-85
2022/01/09 06:28:44;;;;;;;0.17;0.17;;;;;;;-0.56;100.00;98610.09;5043606;28;20040;-85
2022/01/09 06:31:17;;;;;;;0.17;0.17;;;;;;;-0.56;100.00;98603.97;5049932;28;20041;-85
2022/01/09 06:33:50;;;;;;;0.20;0.20;;;;;;;-0.59;100.00;98599.16;5038803;28;20045;-85
2022/01/09 06:36:24;;;;;;;0.10;0.10;;;;;;;-0.57;100.00;98603.16;5047371;28;20037;-85
2022/01/09 06:38:57;;;;;;;0.20;0.20;;;;;;;-0.56;100.00;98602.09;5050886;28;20056;-85
2022/01/09 06:41:26;;;;;;;0.17;0.17;;;;;;;-0.50;100.00;98610.16;5045169;28;20051;-86
2022/01/09 06:44:00;;;;;;;0.20;0.20;;;;;;;-0.47;100.00;98621.13;5050199;28;20049;-85
2022/01/09 06:46:33;;;;;;;0.20;0.20;;;;;;;-0.52;100.00;98616.53;5059217;28;20072;-86
2022/01/09 06:49:06;;;;;;;0.10;0.10;;;;;;;-0.57;100.00;98615.72;5054720;28;20037;-86
2022/01/09 06:51:39;;;;;;;0.20;0.20;;;;;;;-0.57;100.00;98624.53;5046002;28;20056;-86
2022/01/09 06:54:13;;;;;;;0.10;0.10;;;;;;;-0.63;100.00;98625.56;5050086;28;20044;-86
2022/01/09 06:56:43;;;;;;;0.10;0.10;;;;;;;-0.57;100.00;98629.06;5051068;28;20052;-85
2022/01/09 06:59:16;;;;;;;0.10;0.10;;;;;;;-0.62;100.00;98623.69;5044395;28;20048;-85
2022/01/09 07:01:50;;;;;;;0.20;0.20;;;;;;;-0.56;100.00;98636.81;5046640;28;20045;-86
2022/01/09 07:04:23;;;;;;;0.17;0.17;;;;;;;-0.58;100.00;98628.28;5051624;28;20054;-86
2022/01/09 07:06:56;;;;;;;0.20;0.20;;;;;;;-0.62;100.00;98645.88;5048517;28;20108;-85
2022/01/09 07:09:29;;;;;;;0.20;0.20;;;;;;;-0.58;100.00;98635.47;5051302;28;20127;-85
2022/01/09 07:11:59;;;;;;;0.20;0.20;;;;;;;-0.64;100.00;98631.16;5045760;28;20052;-84
2022/01/09 07:14:32;;;;;;;0.10;0.10;;;;;;;-0.59;100.00;98641.91;5046197;28;20045;-82
2022/01/09 07:17:06;;;;;;;0.20;0.20;;;;;;;-0.60;100.00;98646.41;5051633;28;20045;-85
2022/01/09 07:19:39;;;;;;;0.20;0.20;;;;;;;-0.57;100.00;98650.44;5052390;28;20044;-83
2022/01/09 07:22:08;;;;;;;0.20;0.20;;;;;;;-0.52;100.00;98656.63;5044504;28;20056;-85
2022/01/09 07:24:41;;;;;;;0.17;0.17;;;;;;;-0.66;100.00;98638.63;5048989;28;20052;-84
2022/01/09 07:27:15;;;;;;;0.20;0.20;;;;;;;-0.57;100.00;98658.47;5041609;28;20049;-85
2022/01/09 07:29:48;;;;;;;0.10;0.10;;;;;;;-0.65;100.00;98656.25;5043398;28;20034;-86
2022/01/09 07:32:22;;;;;;;0.20;0.20;;;;;;;-0.58;100.00;98655.00;5048177;28;20052;-85
2022/01/09 07:34:51;;;;;;;0.20;0.20;;;;;;;-0.53;100.00;98654.22;5045081;28;20048;-86
2022/01/09 07:37:25;;;;;;;0.10;0.10;;;;;;;-0.57;100.00;98664.59;5042310;28;20048;-85
2022/01/09 07:39:59;;;;;;;0.10;0.10;;;;;;;-0.58;100.00;98656.84;5039732;28;20041;-85
2022/01/09 07:42:33;;;;;;;0.17;0.17;;;;;;;-0.59;100.00;98664.06;5045643;28;20065;-85
2022/01/09 07:45:08;;;;;;;0.20;0.20;;;;;;;-0.60;100.00;98670.47;5046960;28;20052;-84
2022/01/09 07:47:41;;;;;;;0.20;0.20;;;;;;;-0.58;100.00;98676.38;5052582;28;20052;-85
2022/01/09 07:50:11;;;;;;;0.20;0.20;;;;;;;-0.60;100.00;98667.78;5043660;28;20045;-84
2022/01/09 07:52:44;;;;;;;0.20;0.20;;;;;;;-0.57;100.00;98677.16;5044621;28;20052;-86
2022/01/09 07:55:14;;;;;;;0.20;0.20;;;;;;;-0.53;100.00;98679.06;5045335;28;20052;-85
2022/01/09 07:57:49;;;;;;;0.15;0.15;;;;;;;-0.47;100.00;98684.44;5042690;28;20056;-83
2022/01/09 08:00:22;;;;;;;0.20;0.20;;;;;;;-0.50;100.00;98683.09;5046736;28;20048;-85
2022/01/09 08:02:55;;;;;;;0.20;0.20;;;;;;;-0.47;100.00;98679.94;5043146;28;20041;-81
2022/01/09 08:05:29;;;;;;;0.20;0.20;;;;;;;-0.47;100.00;98698.63;5044085;28;20417;-87
2022/01/09 08:08:02;;;;;;;0.10;0.10;;;;;;;-0.47;100.00;98687.13;5053376;28;20049;-85
2022/01/09 08:10:30;;;;;;;0.20;0.20;;;;;;;-0.52;100.00;98693.25;5045817;28;20056;-84
2022/01/09 08:13:04;;;;;;;0.20;0.20;;;;;;;-0.51;100.00;98689.50;5047391;28;20087;-87
2022/01/09 08:15:33;;;;;;;0.10;0.10;;;;;;;-0.44;100.00;98697.28;5049690;28;20053;-87
2022/01/09 08:18:06;;;;;;;0.10;0.10;;;;;;;-0.45;100.00;98703.72;5057149;28;20044;-86
2022/01/09 08:20:34;;;;;;;0.20;0.20;;;;;;;-0.44;100.00;98707.97;5049930;28;20041;-85
2022/01/09 08:23:07;;;;;;;0.20;0.20;;;;;;;-0.46;100.00;98697.53;5046256;28;20045;-86
2022/01/09 08:25:40;;;;;;;0.10;0.10;;;;;;;-0.47;100.00;98708.50;5042967;28;20052;-85
2022/01/09 08:28:15;;;;;;;0.20;0.20;;;;;;;-0.53;100.00;98700.44;5046086;28;20405;-86
2022/01/09 08:30:43;;;;;;;0.20;0.20;;;;;;;-0.37;100.00;98711.25;5045529;28;20049;-87
2022/01/09 08:33:17;;;;;;;0.20;0.20;;;;;;;-0.43;100.00;98701.56;5049489;28;20054;-88
2022/01/09 08:35:45;;;;;;;0.20;0.20;;;;;;;-0.38;100.00;98701.63;5064091;28;20049;-86
2022/01/09 08:38:20;;;;;;;0.10;0.10;;;;;;;-0.38;100.00;98699.75;5053053;28;20065;-86
2022/01/09 08:40:53;;;;;;;0.20;0.20;;;;;;;-0.38;100.00;98713.09;5046369;28;20033;-85
2022/01/09 08:43:28;;;;;;;0.20;0.20;;;;;;;-0.44;100.00;98714.16;5046184;28;20731;-88
2022/01/09 08:46:01;;;;;;;0.20;0.20;;;;;;;-0.37;100.00;98719.28;5044963;28;20050;-87
2022/01/09 08:48:34;;;;;;;0.17;0.17;;;;;;;-0.40;100.00;98714.41;5044459;28;20048;-85
2022/01/09 08:51:07;;;;;;;0.10;0.10;;;;;;;-0.52;100.00;98691.34;5048912;28;20485;-83
2022/01/09 08:53:41;;;;;;;0.20;0.20;;;;;;;-0.33;100.00;98722.22;5049980;28;20041;-83
2022/01/09 08:56:14;;;;;;;0.17;0.17;;;;;;;-0.39;100.00;98719.53;5041213;28;20041;-84
2022/01/09 08:58:44;;;;;;;0.10;0.10;;;;;;;-0.35;100.00;98717.97;5051313;28;20056;-83
2022/01/09 09:01:18;;;;;;;0.10;0.10;;;;;;;-0.37;100.00;98724.63;5038734;28;20052;-82
2022/01/09 09:03:51;;;;;;;0.13;0.13;;;;;;;-0.39;100.00;98727.56;5043110;28;20033;-83
2022/01/09 09:06:20;;;;;;;0.10;0.10;;;;;;;-0.38;100.00;98731.03;5043044;28;20485;-83
2022/01/09 09:08:53;;;;;;;0.10;0.10;;;;;;;-0.52;100.00;98714.63;5046992;28;20049;-84
2022/01/09 09:11:26;;;;;;;0.20;0.20;;;;;;;-0.36;100.00;98729.72;5052270;28;20524;-83
2022/01/09 09:14:02;;;;;;;0.20;0.20;;;;;;;-0.25;100.00;98721.75;5049589;28;20048;-85
2022/01/09 09:16:35;;;;;;;0.20;0.20;;;;;;;-0.33;100.00;98736.41;5046381;28;20045;-81
2022/01/09 09:19:03;;;;;;;0.20;0.20;;;;;;;-0.25;100.00;98741.28;5051546;28;20041;-83
2022/01/09 09:21:31;;;;;;;0.20;0.20;;;;;;;-0.22;100.00;98742.63;5057619;28;20036;-85
2022/01/09 09:24:05;;;;;;;0.20;0.20;;;;;;;-0.19;100.00;98745.59;5053260;28;20055;-84
2022/01/09 09:26:33;;;;;;;0.10;0.10;;;;;;;-0.12;100.00;98748.06;5048322;28;20068;-83
2022/01/09 09:29:08;;;;;;;0.20;0.20;;;;;;;-0.29;100.00;98726.81;5035238;28;20060;-83
2022/01/09 09:31:41;;;;;;;0.20;0.20;;;;;;;-0.18;100.00;98752.56;5044678;28;20053;-83
2022/01/09 09:34:14;;;;;;;0.20;0.20;;;;;;;-0.16;100.00;98743.47;5049069;28;20045;-83
2022/01/09 09:36:48;;;;;;;0.20;0.20;;;;;;;-0.11;100.00;98754.19;5041746;28;20040;-83
2022/01/09 09:39:22;;;;;;;0.17;0.17;;;;;;;-0.18;100.00;98749.06;5055934;28;20049;-83
2022/01/09 09:41:51;;;;;;;0.10;0.10;;;;;;;-0.14;100.00;98755.50;5045126;28;20486;-83
2022/01/09 09:44:21;;;;;;;0.10;0.10;;;;;;;-0.09;100.00;98760.91;5049364;28;20053;-83
2022/01/09 09:46:54;;;;;;;0.20;0.20;;;;;;;-0.12;100.00;98758.75;5052849;28;20052;-82
2022/01/09 09:49:27;;;;;;;0.10;0.10;;;;;;;-0.06;100.00;98760.38;5057201;28;20045;-83
2022/01/09 09:52:00;;;;;;;0.20;0.20;;;;;;;-0.05;100.00;98770.03;5050712;28;20397;-82
2022/01/09 09:54:28;;;;;;;0.20;0.20;;;;;;;-0.02;100.00;98768.69;5050882;28;20055;-83
2022/01/09 09:57:01;;;;;;;0.20;0.20;;;;;;;-0.02;100.00;98766.81;5057196;28;20041;-82
2022/01/09 09:59:38;;;;;;;0.20;0.20;;;;;;;-0.11;100.00;98763.03;5051548;28;20056;-81
2022/01/09 10:02:13;;;;;;;0.20;0.20;;;;;;;-0.02;100.00;98772.16;5058083;28;20041;-83
2022/01/09 10:05:05;;;;;;;0.20;0.20;;;;;;;0.03;100.00;98770.59;5051658;28;20049;-82
2022/01/09 10:07:38;;;;;;;0.20;0.20;;;;;;;0.12;100.00;98777.09;5051414;28;20076;-82
2022/01/09 10:10:14;;;;;;;0.20;0.20;;;;;;;0.14;100.00;98770.41;5049804;28;20045;-82
2022/01/09 10:12:49;;;;;;;0.20;0.20;;;;;;;0.14;100.00;98774.97;5049589;28;20041;-83
2022/01/09 10:15:21;;;;;;;0.20;0.20;;;;;;;0.20;100.00;98781.16;5051639;28;20056;-84
2022/01/09 10:17:51;;;;;;;0.20;0.20;;;;;;;0.23;100.00;98777.97;5051220;28;20056;-83
2022/01/09 10:20:25;;;;;;;0.20;0.20;;;;;;;0.17;100.00;98777.13;5064296;28;20049;-83
2022/01/09 10:22:58;;;;;;;0.20;0.20;;;;;;;0.12;100.00;98774.41;5043423;28;20045;-85
2022/01/09 10:25:36;;;;;;;0.20;0.20;;;;;;;0.17;100.00;98791.28;5049432;28;20509;-83
2022/01/09 10:28:12;;;;;;;0.20;0.20;;;;;;;0.22;100.00;98790.53;5055673;28;20403;-83
2022/01/09 10:30:50;;;;;;;0.20;0.20;;;;;;;0.21;100.00;98793.44;5047319;28;20048;-84
2022/01/09 10:33:30;;;;;;;0.20;0.20;;;;;;;0.18;100.00;98792.13;5046220;28;20045;-83
2022/01/09 10:36:04;;;;;;;0.13;0.13;;;;;;;0.26;100.00;98805.00;5049683;28;20072;-85
2022/01/09 10:38:32;;;;;;;0.10;0.10;;;;;;;0.16;100.00;98796.91;5050089;28;20040;-81
2022/01/09 10:41:05;;;;;;;0.20;0.20;;;;;;;0.27;100.00;98797.78;5049189;28;20056;-82
2022/01/09 10:43:35;;;;;;;0.17;0.17;;;;;;;0.23;100.00;98797.47;5051578;28;20049;-80
2022/01/09 10:46:10;;;;;;;0.20;0.20;;;;;;;0.28;100.00;98794.06;5049214;28;20053;-83
2022/01/09 10:48:44;;;;;;;0.20;0.20;;;;;;;0.19;100.00;98793.72;5049061;28;20055;-83
2022/01/09 10:51:18;;;;;;;0.13;0.13;;;;;;;0.26;100.00;98804.19;5044376;28;20065;-84
2022/01/09 10:53:46;;;;;;;0.20;0.20;;;;;;;0.29;100.00;98804.50;5049647;28;20044;-85
2022/01/09 10:56:24;;;;;;;0.10;0.10;;;;;;;0.35;100.00;98802.66;5055266;28;20398;-85
2022/01/09 10:58:58;;;;;;;;;;;;;;;0.30;100.00;98811.47;5046685;28;20397;-85
2022/01/09 11:01:34;;;;;;;0.20;0.20;;;;;;;0.32;100.00;98808.53;5053301;28;19924;-85
2022/01/09 11:04:06;;;;;;;0.20;0.20;;;;;;;0.28;100.00;98810.09;5062907;28;20052;-84
2022/01/09 11:06:36;;;;;;;0.20;0.20;;;;;;;0.34;100.00;98817.88;5049700;28;20044;-85
2022/01/09 11:09:06;;;;;;;0.20;0.20;;;;;;;0.36;100.00;98817.66;5053036;28;20052;-85
2022/01/09 11:11:42;;;;;;;0.10;0.10;;;;;;;0.34;100.00;98827.78;5063395;28;20055;-86
2022/01/09 11:14:20;;;;;;;0.20;0.20;;;;;;;0.28;100.00;98813.56;5052077;28;20509;-86
2022/01/09 11:16:57;;;;;;;0.20;0.20;;;;;;;0.28;100.00;98816.25;5050529;28;20377;-85
2022/01/09 11:19:30;;;;;;;0.10;0.10;;;;;;;0.29;100.00;98822.41;5052198;28;20055;-83
2022/01/09 11:22:06;;;;;;;0.20;0.20;;;;;;;0.31;100.00;98822.97;5053855;28;20039;-85
2022/01/09 11:25:04;;;;;;;0.20;0.20;;;;;;;0.30;100.00;98830.19;5036126;28;20516;-81
2022/01/09 11:27:50;;;;;;;0.20;0.20;;;;;;;0.20;100.00;98826.63;5038882;28;20049;-84
2022/01/09 11:30:22;;;;;;;0.20;0.20;;;;;;;0.19;100.00;98825.00;5034397;28;20715;-81
2022/01/09 11:33:07;;;;;;;0.20;0.20;;;;;;;0.27;100.00;98829.88;5039412;28;20061;-84
2022/01/09 11:35:51;;;;;;;0.20;0.20;;;;;;;0.28;100.00;98826.16;5037856;28;20052;-85
2022/01/09 11:38:31;;;;;;;0.20;0.20;;;;;;;0.23;100.00;98832.25;5041243;28;20864;-81
2022/01/09 11:41:15;;;;;;;0.20;0.20;;;;;;;0.27;100.00;98828.00;5031520;28;20053;-82
2022/01/09 11:43:57;;;;;;;0.20;0.20;;;;;;;0.33;100.00;98837.69;5032794;28;20056;-81
2022/01/09 11:46:32;;;;;;;0.17;0.17;;;;;;;0.29;100.00;98833.91;5035290;28;20049;-80
2022/01/09 11:49:07;;;;;;;0.20;0.20;;;;;;;0.29;100.00;98828.56;5035213;28;20056;-85
2022/01/09 11:51:36;;;;;;;0.10;0.10;;;;;;;0.33;100.00;98842.22;5034312;28;20045;-84
2022/01/09 11:54:16;;;;;;;0.20;0.20;;;;;;;0.29;100.00;98841.94;5034844;28;20575;-81
2022/01/09 11:57:00;;;;;;;0.10;0.10;;;;;;;0.24;100.00;98838.44;5032364;28;20064;-82
2022/01/09 11:59:48;;;;;;;0.15;0.15;;;;;;;0.25;100.00;98848.88;5034987;28;20057;-82